Disclaimer

Please do not use the information listed here in-flight or in-navigation, as they are not provided to us by the airports but are provided by volunteers, so they might be outdated.

Search


Regions


Airport information page

Radio informations:
Tower (TWR) - 118.6 MHz
RDR - 121.7 MHz
APRON CTL - 121.6 MHz
Approach (APP) - 120.3 MHz

Airport informations:
Latitude: 04° 02' 05.40" S
Longitude: 039° 35' 39.30" E
Elevation: 200 feet - 61 meters
Operating hours: N/A
Operating agency: Civil government, landing fees and diplomatic clearance may be required
Timezone: UTC+3
Fuel: N/A

Runway information:
03/21 - 10991 x 151 feet< - >3350 x 46 meters
15/33 - 4473 x 118 feet< - >1363 x 36 meters

Recent METARs:
HKMO 160700Z 02005KT 9999 SCT023 31/25 Q1015 NOSIG
HKMO 160700Z 02005KT 9999 SCT023 31/25 Q1015 NOSIG
HKMO 160900Z 08008KT 9999 BKN026 31/23 Q1013 NOSIG

Airport on the map: